Time;durP1;ratioP1;P1;durP2;ratioP2;P2;SDS_P1;SDS_P2;PMS_P1;PMS_P2;Temp;Humidity;BMP_temperature;BMP_pressure;BME280_temperature;BME280_humidity;BME280_pressure;Samples;Min_cycle;Max_cycle;Signal;HPM_P1;HPM_P2
2024/01/20 00:01:23;;;;;;;31.00;11.80;;;;;;;-1.60;72.82;97724.55;105079;1254;100151;-80
2024/01/20 00:03:51;;;;;;;29.10;11.50;;;;;;;-1.61;72.91;97724.67;105064;1273;98982;-77
2024/01/20 00:06:19;;;;;;;23.20;10.40;;;;;;;-1.64;72.92;97721.70;105046;1255;96693;-76
2024/01/20 00:08:47;;;;;;;20.90;9.30;;;;;;;-1.65;72.79;97720.36;105043;1254;97093;-78
2024/01/20 00:11:15;;;;;;;20.80;9.30;;;;;;;-1.64;72.69;97721.70;105140;1256;102351;-75
2024/01/20 00:13:43;;;;;;;16.10;8.10;;;;;;;-1.61;72.55;97722.17;105039;1266;100453;-76
2024/01/20 00:16:11;;;;;;;20.10;9.20;;;;;;;-1.59;72.45;97726.27;105020;1256;99962;-77
2024/01/20 00:18:38;;;;;;;20.20;9.10;;;;;;;-1.61;72.33;97723.93;105027;1257;96548;-77
2024/01/20 00:21:06;;;;;;;22.00;8.80;;;;;;;-1.60;72.30;97723.55;105030;1256;97151;-76
2024/01/20 00:23:37;;;;;;;22.00;9.00;;;;;;;-1.60;72.26;97731.45;105009;1260;100858;-75
2024/01/20 00:26:05;;;;;;;30.10;11.20;;;;;;;-1.60;72.29;97737.45;105023;1264;100168;-76
2024/01/20 00:28:32;;;;;;;28.20;10.70;;;;;;;-1.60;72.44;97740.12;104982;1257;98956;-74
2024/01/20 00:31:00;;;;;;;26.00;10.70;;;;;;;-1.62;72.58;97736.04;104975;1275;96551;-73
2024/01/20 00:33:28;;;;;;;27.40;12.80;;;;;;;-1.62;72.52;97734.80;105066;1254;97080;-74
2024/01/20 00:35:56;;;;;;;33.10;13.10;;;;;;;-1.59;72.50;97735.73;105014;1256;102333;-74
2024/01/20 00:38:25;;;;;;;30.30;11.90;;;;;;;-1.57;72.51;97737.20;105037;1265;101323;-74
2024/01/20 00:40:53;;;;;;;28.80;13.00;;;;;;;-1.56;72.60;97739.09;104975;1267;98796;-74
2024/01/20 00:43:21;;;;;;;32.90;11.70;;;;;;;-1.54;72.62;97742.95;105122;1255;97819;-73
2024/01/20 00:45:49;;;;;;;24.90;10.90;;;;;;;-1.52;72.51;97746.45;105060;1254;98170;-74
2024/01/20 00:48:17;;;;;;;27.40;10.10;;;;;;;-1.50;72.50;97746.80;105054;1257;102246;-74
2024/01/20 00:50:44;;;;;;;19.00;9.10;;;;;;;-1.47;72.51;97747.81;105073;1253;101722;-74
2024/01/20 00:53:12;;;;;;;25.00;9.50;;;;;;;-1.47;72.32;97744.77;105010;1253;98579;-74
2024/01/20 00:55:40;;;;;;;24.30;8.60;;;;;;;-1.46;72.46;97745.63;105011;1257;97889;-74
2024/01/20 00:58:08;;;;;;;22.40;9.60;;;;;;;-1.45;72.48;97748.58;105063;1257;97170;-74
2024/01/20 01:00:35;;;;;;;26.60;8.90;;;;;;;-1.46;72.26;97750.23;105044;1267;102313;-74
2024/01/20 01:03:04;;;;;;;23.80;9.40;;;;;;;-1.47;72.12;97745.38;105058;1255;100339;-77
2024/01/20 01:05:32;;;;;;;23.30;8.50;;;;;;;-1.47;72.17;97745.36;105102;1263;99146;-73
2024/01/20 01:08:00;;;;;;;22.50;8.30;;;;;;;-1.46;72.06;97745.80;105087;1256;97460;-81
2024/01/20 01:10:28;;;;;;;17.40;8.10;;;;;;;-1.46;71.96;97747.73;105054;1256;97002;-82
2024/01/20 01:12:55;;;;;;;22.60;8.30;;;;;;;-1.46;72.00;97752.52;105005;1256;101293;-81
2024/01/20 01:15:23;;;;;;;21.70;9.30;;;;;;;-1.44;72.04;97757.77;105065;1254;101363;-79
2024/01/20 01:17:51;;;;;;;28.10;10.10;;;;;;;-1.43;71.95;97753.86;105014;1257;107369;-74
2024/01/20 01:20:19;;;;;;;49.00;14.80;;;;;;;-1.42;72.01;97760.10;105047;1257;97869;-74
2024/01/20 01:22:48;;;;;;;64.50;18.00;;;;;;;-1.41;72.02;97763.94;105013;1257;97037;-74
2024/01/20 01:25:16;;;;;;;28.10;11.40;;;;;;;-1.40;72.03;97767.70;105155;1258;102347;-73
2024/01/20 01:27:44;;;;;;;26.60;10.80;;;;;;;-1.40;71.98;97768.27;104989;1257;101360;-74
2024/01/20 01:30:12;;;;;;;20.40;8.70;;;;;;;-1.40;71.92;97769.09;105032;1275;99103;-74
2024/01/20 01:32:40;;;;;;;19.50;8.00;;;;;;;-1.38;71.81;97764.02;105077;1257;96540;-74
2024/01/20 01:35:08;;;;;;;24.70;8.60;;;;;;;-1.38;71.90;97759.79;105057;1255;97045;-74
2024/01/20 01:37:36;;;;;;;21.30;8.60;;;;;;;-1.38;71.95;97757.45;105065;1257;101686;-73
2024/01/20 01:40:04;;;;;;;17.50;7.30;;;;;;;-1.37;71.90;97763.76;105000;1267;101564;-73
2024/01/20 01:42:33;;;;;;;16.80;7.70;;;;;;;-1.41;71.57;97764.92;105022;1254;98567;-73
2024/01/20 01:45:01;;;;;;;21.20;8.60;;;;;;;-1.42;71.70;97764.85;105077;1265;97423;-73
2024/01/20 01:47:29;;;;;;;18.10;7.40;;;;;;;-1.40;71.84;97762.08;105064;1256;97024;-74
2024/01/20 01:49:57;;;;;;;15.60;7.30;;;;;;;-1.39;71.77;97763.23;105038;1257;102246;-74
2024/01/20 01:52:26;;;;;;;49.70;14.90;;;;;;;-1.41;71.68;97763.75;105185;1263;101409;-74
2024/01/20 01:54:55;;;;;;;39.60;12.70;;;;;;;-1.43;71.77;97762.79;105065;1257;98990;-74
2024/01/20 01:57:24;;;;;;;27.90;11.20;;;;;;;-1.41;71.73;97760.05;105066;1256;96551;-73
2024/01/20 01:59:52;;;;;;;33.90;12.50;;;;;;;-1.40;71.84;97765.60;105057;1257;171761;-74
2024/01/20 02:02:20;;;;;;;48.90;15.30;;;;;;;-1.38;71.93;97763.16;105147;1257;101277;-74
2024/01/20 02:04:48;;;;;;;55.70;17.90;;;;;;;-1.37;72.10;97763.42;104971;1257;100369;-73
2024/01/20 02:07:16;;;;;;;33.60;13.60;;;;;;;-1.37;72.09;97759.50;105002;1254;98667;-79
2024/01/20 02:09:46;;;;;;;39.60;13.00;;;;;;;-1.36;72.07;97761.54;104985;1257;97481;-79
2024/01/20 02:12:15;;;;;;;26.60;10.10;;;;;;;-1.34;72.08;97763.34;105114;1257;97788;-79
2024/01/20 02:14:46;;;;;;;23.20;8.80;;;;;;;-1.35;71.97;97761.27;105130;1256;102518;-79
2024/01/20 02:17:14;;;;;;;25.60;9.70;;;;;;;-1.37;71.91;97764.23;105032;1257;100323;-82
2024/01/20 02:19:42;;;;;;;33.20;12.50;;;;;;;-1.37;72.05;97765.83;105030;1257;99067;-81
2024/01/20 02:22:11;;;;;;;28.70;11.00;;;;;;;-1.38;72.12;97767.90;105047;1256;97481;-73
2024/01/20 02:24:40;;;;;;;22.60;9.90;;;;;;;-1.41;72.18;97764.30;105136;1254;97093;-73
2024/01/20 02:27:09;;;;;;;26.30;10.70;;;;;;;-1.46;72.08;97761.47;105021;1256;101254;-74
2024/01/20 02:29:39;;;;;;;26.30;11.20;;;;;;;-1.47;72.12;97764.76;105021;1267;100270;-75
2024/01/20 02:32:08;;;;;;;23.30;9.80;;;;;;;-1.43;72.32;97768.33;104966;1264;107492;-78
2024/01/20 02:34:37;;;;;;;20.50;9.20;;;;;;;-1.43;72.30;97770.06;105006;1267;96595;-74
2024/01/20 02:37:07;;;;;;;18.70;9.30;;;;;;;-1.43;72.18;97768.69;105045;1253;97480;-74
2024/01/20 02:39:35;;;;;;;22.70;9.70;;;;;;;-1.45;72.13;97771.15;105071;1257;101412;-74
2024/01/20 02:42:04;;;;;;;19.60;8.00;;;;;;;-1.47;72.11;97776.21;105010;1257;100140;-73
2024/01/20 02:44:32;;;;;;;21.00;9.80;;;;;;;-1.48;72.13;97779.84;105005;1254;100004;-76
2024/01/20 02:46:59;;;;;;;20.40;8.70;;;;;;;-1.46;72.26;97783.05;105013;1257;96717;-77
2024/01/20 02:49:27;;;;;;;20.00;8.50;;;;;;;-1.44;72.25;97783.38;105044;1257;97909;-76
2024/01/20 02:51:55;;;;;;;24.50;9.10;;;;;;;-1.46;72.15;97783.88;105080;1255;101775;-76
2024/01/20 02:54:23;;;;;;;20.70;9.20;;;;;;;-1.45;72.24;97783.83;105079;1258;100321;-77
2024/01/20 02:56:50;;;;;;;17.20;7.70;;;;;;;-1.46;72.02;97781.93;105028;1256;98738;-77
2024/01/20 02:59:18;;;;;;;22.60;7.90;;;;;;;-1.47;71.95;97781.67;105037;1258;96613;-77
2024/01/20 03:01:46;;;;;;;22.70;8.30;;;;;;;-1.47;72.03;97780.14;105068;1264;97067;-78
2024/01/20 03:04:15;;;;;;;20.50;7.80;;;;;;;-1.48;72.02;97777.06;105079;1255;101248;-76
2024/01/20 03:06:44;;;;;;;21.70;8.20;;;;;;;-1.50;72.05;97777.20;105172;1257;100401;-78
2024/01/20 03:09:14;;;;;;;17.10;7.50;;;;;;;-1.49;72.17;97782.21;104998;1257;100198;-76
2024/01/20 03:11:43;;;;;;;20.50;8.70;;;;;;;-1.48;72.19;97783.24;105004;1257;97106;-77
2024/01/20 03:14:11;;;;;;;22.70;8.90;;;;;;;-1.49;72.33;97788.77;105057;1257;97525;-77
2024/01/20 03:16:40;;;;;;;20.00;9.60;;;;;;;-1.49;72.27;97795.45;105081;1253;102109;-76
2024/01/20 03:19:07;;;;;;;23.80;8.80;;;;;;;-1.48;72.22;97795.18;105005;1258;101338;-79
2024/01/20 03:21:35;;;;;;;19.70;9.10;;;;;;;-1.48;72.28;97792.89;105001;1257;100013;-78
2024/01/20 03:24:03;;;;;;;16.10;7.20;;;;;;;-1.47;72.25;97790.17;104991;1258;97772;-78
2024/01/20 03:26:31;;;;;;;18.50;7.40;;;;;;;-1.45;72.12;97790.33;105012;1257;97812;-77
2024/01/20 03:28:58;;;;;;;15.10;7.00;;;;;;;-1.43;72.04;97795.67;105111;1256;101286;-76
2024/01/20 03:31:26;;;;;;;18.00;6.60;;;;;;;-1.42;72.03;97795.77;105033;1257;101405;-78
2024/01/20 03:33:54;;;;;;;15.90;6.10;;;;;;;-1.43;72.07;97797.93;104930;1267;98970;-76
2024/01/20 03:36:22;;;;;;;14.30;6.40;;;;;;;-1.45;72.04;97801.27;105075;1256;96578;-77
2024/01/20 03:38:49;;;;;;;14.80;6.30;;;;;;;-1.44;72.06;97809.13;105069;1266;97149;-77
2024/01/20 03:41:17;;;;;;;18.30;7.70;;;;;;;-1.42;72.16;97813.96;105150;1266;101409;-76
2024/01/20 03:43:45;;;;;;;18.80;8.20;;;;;;;-1.42;72.30;97823.26;105032;1257;101422;-75
2024/01/20 03:46:13;;;;;;;20.60;7.30;;;;;;;-1.43;72.38;97822.48;105062;1252;99542;-79
2024/01/20 03:48:41;;;;;;;16.80;6.70;;;;;;;-1.48;72.10;97820.81;105009;1265;96661;-78
2024/01/20 03:51:10;;;;;;;21.90;8.40;;;;;;;-1.50;72.08;97817.09;105046;1257;97054;-77
2024/01/20 03:53:38;;;;;;;19.80;8.10;;;;;;;-1.50;72.18;97816.35;105105;1254;100802;-77
2024/01/20 03:56:06;;;;;;;21.00;7.70;;;;;;;-1.50;72.23;97813.72;105016;1256;101584;-78
2024/01/20 03:58:33;;;;;;;16.00;7.30;;;;;;;-1.50;72.31;97815.34;105156;1256;98586;-76
2024/01/20 04:01:01;;;;;;;18.50;7.50;;;;;;;-1.51;72.16;97815.55;105018;1258;96568;-76
2024/01/20 04:03:29;;;;;;;17.90;6.90;;;;;;;-1.51;72.18;97816.64;105097;1275;96556;-76
2024/01/20 04:05:57;;;;;;;19.40;7.70;;;;;;;-1.50;72.31;97818.54;105075;1257;101983;-77
2024/01/20 04:08:24;;;;;;;16.70;7.10;;;;;;;-1.52;72.42;97821.64;105039;1258;101341;-77
2024/01/20 04:10:52;;;;;;;16.70;6.70;;;;;;;-1.53;72.47;97820.29;104969;1266;99000;-77
2024/01/20 04:13:20;;;;;;;14.60;7.10;;;;;;;-1.53;72.54;97821.40;105049;1265;96546;-78
2024/01/20 04:15:48;;;;;;;14.70;7.10;;;;;;;-1.55;72.42;97821.05;105077;1256;97063;-78
2024/01/20 04:18:15;;;;;;;17.70;7.00;;;;;;;-1.57;72.39;97824.02;105042;1269;101202;-77
2024/01/20 04:20:43;;;;;;;16.50;7.40;;;;;;;-1.58;72.33;97828.67;105082;1256;101384;-77
2024/01/20 04:23:11;;;;;;;20.30;7.50;;;;;;;-1.59;72.13;97834.58;105028;1257;100017;-77
2024/01/20 04:25:39;;;;;;;16.50;7.00;;;;;;;-1.60;72.14;97836.27;105171;1275;97395;-75
2024/01/20 04:28:07;;;;;;;12.90;6.50;;;;;;;-1.61;71.94;97836.73;105058;1258;97077;-76
2024/01/20 04:30:34;;;;;;;17.10;7.40;;;;;;;-1.63;71.89;97834.60;105045;1258;101325;-76
2024/01/20 04:33:02;;;;;;;13.90;7.50;;;;;;;-1.66;72.02;97834.27;105048;1258;101575;-77
2024/01/20 04:35:30;;;;;;;13.00;7.60;;;;;;;-1.70;72.04;97830.70;105000;1257;98579;-76
2024/01/20 04:37:58;;;;;;;15.10;6.70;;;;;;;-1.72;71.97;97832.14;105069;1256;97777;-77
2024/01/20 04:40:25;;;;;;;19.40;7.90;;;;;;;-1.73;72.03;97828.14;105026;1257;97151;-78
2024/01/20 04:42:53;;;;;;;18.70;10.70;;;;;;;-1.75;72.01;97823.55;105091;1256;102246;-78
2024/01/20 04:45:21;;;;;;;17.60;8.40;;;;;;;-1.78;71.91;97825.77;105073;1256;101277;-77
2024/01/20 04:47:48;;;;;;;19.60;8.00;;;;;;;-1.84;71.93;97828.88;105074;1267;99898;-78
2024/01/20 04:50:16;;;;;;;23.30;8.20;;;;;;;-1.88;72.06;97830.09;105069;1255;97496;-79
2024/01/20 04:52:44;;;;;;;18.60;7.40;;;;;;;-1.94;71.94;97831.05;105096;1256;96966;-77
2024/01/20 04:55:12;;;;;;;19.90;8.10;;;;;;;-1.99;72.01;97834.84;105095;1258;101257;-77
2024/01/20 04:57:39;;;;;;;18.30;7.40;;;;;;;-2.02;72.03;97836.13;105041;1253;101512;-77
2024/01/20 05:00:08;;;;;;;16.90;7.00;;;;;;;-2.07;71.95;97833.61;105051;1253;99641;-76
2024/01/20 05:02:36;;;;;;;20.50;7.30;;;;;;;-2.12;71.92;97834.88;105175;1265;96577;-79
2024/01/20 05:05:05;;;;;;;16.20;7.30;;;;;;;-2.15;71.96;97835.45;105205;1255;97477;-82
2024/01/20 05:07:32;;;;;;;17.00;6.90;;;;;;;-2.17;72.01;97838.42;105113;1257;102505;-80
2024/01/20 05:10:00;;;;;;;17.10;7.60;;;;;;;-2.18;72.06;97842.55;105001;1254;101279;-80
2024/01/20 05:12:28;;;;;;;14.60;7.50;;;;;;;-2.21;72.05;97843.13;104974;1256;97721;-80
2024/01/20 05:14:57;;;;;;;14.40;7.10;;;;;;;-2.21;72.04;97844.41;105073;1256;97510;-80
2024/01/20 05:17:24;;;;;;;16.10;5.70;;;;;;;-2.20;72.01;97846.45;105082;1253;97067;-73
2024/01/20 05:19:52;;;;;;;13.70;6.80;;;;;;;-2.20;71.94;97850.28;105147;1253;100713;-74
2024/01/20 05:22:21;;;;;;;17.70;6.30;;;;;;;-2.19;71.96;97857.09;105034;1256;100354;-72
2024/01/20 05:24:48;;;;;;;18.10;6.60;;;;;;;-2.20;71.90;97860.19;104998;1267;98993;-73
2024/01/20 05:27:16;;;;;;;23.40;9.60;;;;;;;-2.23;71.89;97861.08;105034;1256;96543;-74
2024/01/20 05:29:44;;;;;;;17.20;7.30;;;;;;;-2.25;71.98;97864.60;105065;1256;97762;-73
2024/01/20 05:32:12;;;;;;;17.30;7.10;;;;;;;-2.27;71.96;97866.16;105037;1258;100743;-75
2024/01/20 05:34:40;;;;;;;17.80;7.40;;;;;;;-2.30;71.93;97866.77;105068;1256;101282;-73
2024/01/20 05:37:07;;;;;;;16.30;6.50;;;;;;;-2.33;71.84;97870.73;105059;1257;98818;-73
2024/01/20 05:39:36;;;;;;;12.60;6.20;;;;;;;-2.37;71.79;97875.61;105077;1253;96559;-73
2024/01/20 05:42:04;;;;;;;16.80;7.00;;;;;;;-2.41;71.77;97880.13;105124;1256;97131;-73
2024/01/20 05:44:31;;;;;;;14.70;6.20;;;;;;;-2.44;71.91;97880.61;105061;1256;101455;-73
2024/01/20 05:46:59;;;;;;;20.40;7.80;;;;;;;-2.45;72.02;97885.92;105078;1256;101429;-73
2024/01/20 05:49:27;;;;;;;21.70;8.60;;;;;;;-2.47;71.98;97888.20;105057;1256;99038;-73
2024/01/20 05:51:55;;;;;;;17.30;7.10;;;;;;;-2.48;71.86;97892.73;105088;1255;97481;-73
2024/01/20 05:54:22;;;;;;;17.30;7.30;;;;;;;-2.50;71.91;97899.56;105042;1255;97365;-73
2024/01/20 05:56:50;;;;;;;18.80;7.20;;;;;;;-2.49;71.88;97907.60;105006;1256;101275;-75
2024/01/20 05:59:18;;;;;;;15.20;7.00;;;;;;;-2.50;71.81;97911.20;105098;1256;100157;-72
2024/01/20 06:01:50;;;;;;;13.20;6.20;;;;;;;-2.54;71.78;97914.98;104981;1257;99945;-74
2024/01/20 06:04:18;;;;;;;17.00;6.80;;;;;;;-2.58;71.80;97912.80;105063;1267;96600;-73
2024/01/20 06:06:47;;;;;;;16.90;7.40;;;;;;;-2.59;71.83;97914.19;105080;1257;98011;-74
2024/01/20 06:09:14;;;;;;;13.70;6.20;;;;;;;-2.62;71.76;97909.23;105018;1257;101190;-72
2024/01/20 06:11:43;;;;;;;17.50;7.40;;;;;;;-2.63;71.70;97912.02;105050;1256;100382;-74
2024/01/20 06:14:10;;;;;;;15.40;7.60;;;;;;;-2.63;71.74;97916.00;105150;1268;98641;-77
2024/01/20 06:16:41;;;;;;;19.00;7.80;;;;;;;-2.61;71.67;97918.19;105027;1256;97960;-81
2024/01/20 06:19:09;;;;;;;16.30;7.10;;;;;;;-2.62;71.79;97918.77;105066;1257;97359;-82
2024/01/20 06:21:37;;;;;;;16.20;7.10;;;;;;;-2.64;71.62;97920.82;104947;1262;102384;-82
2024/01/20 06:24:05;;;;;;;16.90;7.00;;;;;;;-2.64;71.69;97924.08;105076;1256;100346;-81
2024/01/20 06:26:33;;;;;;;19.50;7.90;;;;;;;-2.68;71.71;97921.73;105011;1257;97700;-81
2024/01/20 06:29:00;;;;;;;12.50;7.60;;;;;;;-2.72;71.60;97923.28;105066;1258;97226;-81
2024/01/20 06:31:29;;;;;;;16.20;7.60;;;;;;;-2.77;71.57;97921.02;105067;1259;97063;-74
2024/01/20 06:33:57;;;;;;;21.10;10.60;;;;;;;-2.81;71.56;97922.34;105090;1257;101206;-79
2024/01/20 06:36:26;;;;;;;26.60;12.30;;;;;;;-2.83;71.52;97922.73;105159;1253;100367;-77
2024/01/20 06:38:54;;;;;;;27.30;11.90;;;;;;;-2.86;71.52;97923.43;105062;1257;99089;-78
2024/01/20 06:41:22;;;;;;;28.10;11.70;;;;;;;-2.87;71.58;97925.10;105123;1256;96552;-80
2024/01/20 06:43:49;;;;;;;25.10;11.40;;;;;;;-2.91;71.45;97927.17;105076;1256;96980;-78
2024/01/20 06:46:17;;;;;;;23.20;10.60;;;;;;;-2.95;71.45;97932.76;105103;1256;100997;-80
2024/01/20 06:48:45;;;;;;;23.60;10.80;;;;;;;-2.96;71.49;97931.79;105083;1264;100342;-80
2024/01/20 06:51:15;;;;;;;24.20;11.00;;;;;;;-2.98;71.51;97936.65;104986;1269;99722;-74
2024/01/20 06:53:43;;;;;;;24.30;9.80;;;;;;;-3.01;71.54;97931.95;105115;1252;96569;-78
2024/01/20 06:56:11;;;;;;;23.40;10.60;;;;;;;-3.02;71.57;97932.78;105091;1257;96564;-79
2024/01/20 06:58:39;;;;;;;22.10;9.30;;;;;;;-3.01;71.64;97941.13;105005;1257;102182;-79
2024/01/20 07:01:07;;;;;;;20.30;9.20;;;;;;;-3.00;71.66;97942.26;104991;1256;101239;-77
2024/01/20 07:03:34;;;;;;;21.20;9.60;;;;;;;-3.02;71.53;97944.04;105072;1257;99961;-76
2024/01/20 07:06:03;;;;;;;21.20;9.10;;;;;;;-3.05;71.45;97946.05;105045;1256;97777;-76
2024/01/20 07:08:31;;;;;;;17.70;9.20;;;;;;;-3.09;71.41;97944.91;105004;1253;96944;-78
2024/01/20 07:10:59;;;;;;;18.30;9.50;;;;;;;-3.11;71.43;97951.94;105090;1267;101982;-76
2024/01/20 07:13:26;;;;;;;23.40;11.40;;;;;;;-3.12;71.34;97953.06;105002;1253;101371;-80
2024/01/20 07:15:54;;;;;;;28.80;13.20;;;;;;;-3.13;71.44;97950.02;105056;1256;99919;-79
2024/01/20 07:18:22;;;;;;;21.70;11.00;;;;;;;-3.16;71.52;97954.63;105009;1256;97226;-79
2024/01/20 07:20:50;;;;;;;24.50;11.80;;;;;;;-3.15;71.78;97958.77;105008;1257;97077;-79
2024/01/20 07:23:17;;;;;;;28.70;12.20;;;;;;;-3.16;71.75;97954.99;105029;1257;101317;-78
2024/01/20 07:25:45;;;;;;;26.10;12.40;;;;;;;-3.17;71.69;97963.98;105003;1260;101484;-79
2024/01/20 07:28:13;;;;;;;30.80;12.70;;;;;;;-3.15;71.85;97968.63;104999;1256;99075;-81
2024/01/20 07:30:40;;;;;;;22.00;12.60;;;;;;;-3.17;71.78;97967.73;105031;1253;97918;-76
2024/01/20 07:33:08;;;;;;;33.90;15.20;;;;;;;-3.17;71.84;97967.71;105056;1256;97869;-76
2024/01/20 07:35:36;;;;;;;27.60;13.80;;;;;;;-3.14;71.88;97969.92;104979;1258;101263;-75
2024/01/20 07:38:04;;;;;;;24.70;13.80;;;;;;;-3.11;71.85;97971.81;105109;1257;101230;-75
2024/01/20 07:40:32;;;;;;;27.40;14.20;;;;;;;-3.05;71.85;97971.53;104993;1259;99924;-75
2024/01/20 07:43:00;;;;;;;25.60;11.80;;;;;;;-3.02;71.66;97971.31;105055;1255;96521;-76
2024/01/20 07:45:28;;;;;;;18.90;8.80;;;;;;;-2.99;71.58;97973.36;105076;1256;98217;-74
2024/01/20 07:47:55;;;;;;;18.10;9.00;;;;;;;-2.91;71.49;97979.48;105075;1275;102532;-77
2024/01/20 07:50:23;;;;;;;17.90;8.70;;;;;;;-2.82;71.51;97983.27;105106;1256;101287;-76
2024/01/20 07:52:51;;;;;;;16.20;8.60;;;;;;;-2.77;71.36;97986.66;105042;1257;98822;-79
2024/01/20 07:55:19;;;;;;;17.40;8.50;;;;;;;-2.70;71.29;97985.16;105044;1258;97349;-78
2024/01/20 07:57:47;;;;;;;17.30;8.70;;;;;;;-2.65;71.19;97992.97;104989;1257;96976;-77
2024/01/20 08:00:15;;;;;;;20.10;9.40;;;;;;;-2.60;70.95;97995.25;105078;1267;101296;-78
2024/01/20 08:02:42;;;;;;;18.00;8.70;;;;;;;-2.54;70.92;97998.15;105113;1256;101755;-80
2024/01/20 08:05:10;;;;;;;17.80;9.10;;;;;;;-2.46;70.90;97991.42;105030;1256;100088;-81
2024/01/20 08:07:38;;;;;;;16.40;8.70;;;;;;;-2.39;70.73;97988.96;105016;1256;96765;-80
2024/01/20 08:10:06;;;;;;;17.20;8.60;;;;;;;-2.34;70.76;97989.96;105097;1254;96680;-79
2024/01/20 08:12:34;;;;;;;18.20;8.60;;;;;;;-2.28;70.59;97990.17;104960;1266;102376;-80
2024/01/20 08:15:01;;;;;;;19.50;9.60;;;;;;;-2.21;70.49;97990.02;105018;1258;100361;-80
2024/01/20 08:17:29;;;;;;;14.30;8.10;;;;;;;-2.14;70.43;97994.42;105011;1267;100116;-81
2024/01/20 08:19:57;;;;;;;19.00;7.90;;;;;;;-2.06;70.34;97998.73;105101;1256;96616;-83
2024/01/20 08:22:25;;;;;;;15.10;7.80;;;;;;;-1.96;70.35;98000.24;105112;1256;96758;-83
2024/01/20 08:24:53;;;;;;;18.90;8.40;;;;;;;-1.88;70.11;97999.59;105086;1254;101221;-81
2024/01/20 08:27:20;;;;;;;15.70;7.90;;;;;;;-1.80;70.14;98001.26;105111;1258;100052;-82
2024/01/20 08:29:50;;;;;;;14.80;7.70;;;;;;;-1.71;69.99;98001.15;105113;1252;98968;-79
2024/01/20 08:32:18;;;;;;;16.10;8.40;;;;;;;-1.66;69.52;97998.94;105051;1258;96606;-81
2024/01/20 08:34:46;;;;;;;17.30;9.50;;;;;;;-1.61;69.51;98004.72;105093;1275;98177;-80
2024/01/20 08:37:13;;;;;;;17.40;8.20;;;;;;;-1.56;69.31;98014.55;105031;1254;101869;-80
2024/01/20 08:39:41;;;;;;;19.60;8.20;;;;;;;-1.49;69.42;98017.73;104984;1255;101954;-82
2024/01/20 08:42:09;;;;;;;17.20;8.00;;;;;;;-1.40;69.31;98021.08;105083;1256;99024;-80
2024/01/20 08:44:36;;;;;;;15.00;7.70;;;;;;;-1.32;69.19;98026.02;105108;1253;96546;-80
2024/01/20 08:47:04;;;;;;;17.40;7.40;;;;;;;-1.23;69.00;98029.73;105065;1252;96972;-81
2024/01/20 08:49:32;;;;;;;14.30;7.30;;;;;;;-1.12;68.81;98033.23;105025;1267;101833;-80
2024/01/20 08:52:00;;;;;;;15.40;7.70;;;;;;;-1.00;68.37;98037.43;105046;1256;101222;-79
2024/01/20 08:54:28;;;;;;;13.80;6.30;;;;;;;-0.91;68.18;98037.21;105195;1256;99901;-80
2024/01/20 08:56:55;;;;;;;12.80;6.70;;;;;;;-0.81;67.75;98036.41;105017;1256;96563;-79
2024/01/20 08:59:23;;;;;;;14.90;7.60;;;;;;;-0.71;67.61;98038.71;105049;1253;96985;-79
2024/01/20 09:01:52;;;;;;;13.10;6.50;;;;;;;-0.60;67.58;98041.70;105029;1253;101838;-74
2024/01/20 09:04:19;;;;;;;15.50;7.30;;;;;;;-0.48;67.30;98045.70;105020;1252;100515;-74
2024/01/20 09:06:47;;;;;;;15.60;7.00;;;;;;;-0.38;67.09;98046.61;104970;1257;98971;-74
2024/01/20 09:09:18;;;;;;;17.50;8.50;;;;;;;-0.28;67.08;98048.04;105001;1257;97882;-73
2024/01/20 09:11:45;;;;;;;11.10;6.50;;;;;;;-0.13;67.05;98050.33;105008;1253;97882;-74
2024/01/20 09:14:13;;;;;;;20.70;9.20;;;;;;;0.04;66.91;98044.48;104993;1258;101316;-74
2024/01/20 09:16:41;;;;;;;17.00;8.00;;;;;;;0.21;66.74;98047.44;105032;1266;101059;-72
2024/01/20 09:19:09;;;;;;;17.20;7.50;;;;;;;0.37;66.75;98048.16;104998;1256;100186;-73
2024/01/20 09:21:37;;;;;;;16.50;8.50;;;;;;;0.49;66.18;98049.05;104992;1257;97486;-72
2024/01/20 09:24:04;;;;;;;15.50;6.70;;;;;;;0.62;66.78;98041.38;105042;1253;97747;-74
2024/01/20 09:26:32;;;;;;;14.50;7.30;;;;;;;0.78;66.38;98051.63;105031;1258;101225;-74
2024/01/20 09:29:00;;;;;;;22.20;8.50;;;;;;;0.87;65.89;98050.16;104998;1258;101496;-74
2024/01/20 09:31:28;;;;;;;19.30;7.80;;;;;;;1.02;65.69;98049.53;104977;1253;99064;-78
2024/01/20 09:33:56;;;;;;;12.80;7.00;;;;;;;1.21;65.43;98050.45;105004;1253;97214;-81
2024/01/20 09:36:24;;;;;;;16.10;7.80;;;;;;;1.36;65.16;98052.65;105004;1257;97065;-80
2024/01/20 09:38:52;;;;;;;19.00;9.10;;;;;;;1.47;64.77;98056.05;105111;1258;102163;-80
2024/01/20 09:41:19;;;;;;;28.40;13.20;;;;;;;1.56;63.94;98047.48;105120;1256;100424;-80
2024/01/20 09:43:49;;;;;;;20.80;10.90;;;;;;;1.62;62.92;98048.16;105080;1257;99936;-79
2024/01/20 09:46:17;;;;;;;16.40;8.70;;;;;;;1.69;63.25;98043.00;105059;1253;96590;-78
2024/01/20 09:48:46;;;;;;;11.90;7.10;;;;;;;1.72;63.48;98044.60;105122;1252;97082;-83
2024/01/20 09:51:14;;;;;;;14.60;7.10;;;;;;;1.66;63.43;98042.96;105075;1268;102296;-82
2024/01/20 09:53:44;;;;;;;17.20;8.00;;;;;;;1.58;62.89;98046.42;105019;1255;100415;-82
2024/01/20 09:56:11;;;;;;;14.30;7.90;;;;;;;1.45;62.87;98047.02;105090;1258;98657;-83
2024/01/20 09:58:40;;;;;;;17.50;8.50;;;;;;;1.37;63.26;98042.60;105026;1256;96809;-82
2024/01/20 10:01:08;;;;;;;19.10;9.30;;;;;;;1.33;63.05;98050.30;105044;1256;97223;-82
2024/01/20 10:03:40;;;;;;;14.80;8.60;;;;;;;1.27;63.13;98050.52;105083;1267;101358;-81
2024/01/20 10:06:08;;;;;;;14.00;8.10;;;;;;;1.20;62.80;98050.89;105154;1256;101362;-80
2024/01/20 10:08:36;;;;;;;19.00;8.60;;;;;;;1.11;62.68;98045.36;105051;1254;98977;-81
2024/01/20 10:11:04;;;;;;;14.50;8.60;;;;;;;1.04;62.97;98040.23;105086;1253;97002;-79
2024/01/20 10:13:32;;;;;;;17.90;10.00;;;;;;;1.00;63.02;98039.34;105069;1257;97074;-79
2024/01/20 10:16:00;;;;;;;20.10;9.50;;;;;;;0.96;62.95;98037.46;105071;1256;100731;-79
2024/01/20 10:18:28;;;;;;;17.80;9.30;;;;;;;0.92;62.85;98040.63;105057;1269;101320;-80
2024/01/20 10:21:06;;;;;;;18.60;8.80;;;;;;;0.90;62.92;98036.58;105102;1256;99391;-85
2024/01/20 10:23:35;;;;;;;17.70;9.30;;;;;;;0.91;62.83;98034.36;105000;1257;96550;-80
2024/01/20 10:26:04;;;;;;;14.40;7.50;;;;;;;0.89;62.63;98035.05;105179;1253;97076;-80
2024/01/20 10:28:33;;;;;;;18.90;9.80;;;;;;;0.86;62.12;98036.75;105134;1256;101238;-81
2024/01/20 10:31:10;;;;;;;17.50;9.00;;;;;;;0.84;62.77;98037.95;105120;1258;100035;-82
2024/01/20 10:33:38;;;;;;;19.70;10.10;;;;;;;0.84;62.91;98038.50;105043;1253;99717;-81
2024/01/20 10:36:07;;;;;;;17.60;8.60;;;;;;;0.86;62.82;98037.25;105070;1256;97605;-82
2024/01/20 10:38:39;;;;;;;20.10;9.80;;;;;;;0.84;62.69;98037.32;105011;1257;96979;-82
2024/01/20 10:41:14;;;;;;;20.90;11.70;;;;;;;0.80;62.24;98037.14;105108;1253;102144;-79
2024/01/20 10:43:52;;;;;;;17.90;8.90;;;;;;;0.75;62.24;98036.09;105119;1264;100535;-72
2024/01/20 10:46:27;;;;;;;15.70;9.10;;;;;;;0.75;62.77;98032.23;105155;1256;106908;-72
2024/01/20 10:49:00;;;;;;;18.90;9.00;;;;;;;0.78;62.68;98027.00;105602;1256;96626;-71
2024/01/20 10:51:29;;;;;;;19.00;8.20;;;;;;;0.80;62.84;98021.33;105030;1256;97077;-72
2024/01/20 10:53:58;;;;;;;18.30;9.20;;;;;;;0.82;62.40;98025.45;105018;1256;102305;-73
2024/01/20 10:56:28;;;;;;;21.20;8.30;;;;;;;0.83;62.43;98021.10;105224;1256;100329;-72
2024/01/20 10:59:02;;;;;;;20.10;7.90;;;;;;;0.85;62.22;98021.80;105028;1256;100063;-72
2024/01/20 11:01:30;;;;;;;21.60;9.10;;;;;;;0.88;61.99;98021.48;105078;1252;96545;-72
2024/01/20 11:03:58;;;;;;;17.70;8.70;;;;;;;0.93;62.22;98019.52;105132;1259;97112;-73
2024/01/20 11:06:26;;;;;;;14.50;7.10;;;;;;;0.94;61.58;98020.79;105067;1253;101760;-71
2024/01/20 11:08:54;;;;;;;17.50;8.00;;;;;;;0.94;61.48;98020.80;105017;1269;100446;-74
2024/01/20 11:11:29;;;;;;;19.40;8.60;;;;;;;0.97;61.61;98018.20;105068;1256;100211;-73
2024/01/20 11:14:00;;;;;;;16.80;7.90;;;;;;;1.12;61.88;98015.84;104990;1258;97569;-72
2024/01/20 11:16:33;;;;;;;14.60;7.50;;;;;;;1.42;62.21;98012.41;105102;1256;96643;-78
2024/01/20 11:19:12;;;;;;;17.80;8.70;;;;;;;1.86;62.02;98007.91;105036;1253;103043;-79